createdAt,value
2017-06-30T00:00:32.734Z,1001.41
2017-06-30T00:01:34.634Z,1001.46
2017-06-30T00:02:48.810Z,1001.48
2017-06-30T00:03:50.703Z,1001.50
2017-06-30T00:04:52.580Z,1001.47
2017-06-30T00:05:54.479Z,1001.43
2017-06-30T00:06:56.320Z,1001.39
2017-06-30T00:07:58.159Z,1001.42
2017-06-30T00:09:00.045Z,1001.42
2017-06-30T00:10:01.919Z,1001.42
2017-06-30T00:11:03.814Z,1001.39
2017-06-30T00:12:17.989Z,1001.44
2017-06-30T00:13:19.882Z,1001.40
2017-06-30T00:14:21.757Z,1001.47
2017-06-30T00:15:23.653Z,1001.39
2017-06-30T00:16:25.464Z,1001.40
2017-06-30T00:17:27.301Z,1001.42
2017-06-30T00:18:29.196Z,1001.42
2017-06-30T00:19:31.088Z,1001.45
2017-06-30T00:20:32.959Z,1001.37
2017-06-30T00:21:47.106Z,1001.47
2017-06-30T00:22:49.001Z,1001.46
2017-06-30T00:23:50.897Z,1001.51
2017-06-30T00:24:52.771Z,1001.55
2017-06-30T00:25:54.610Z,1001.46
2017-06-30T00:26:56.446Z,1001.47
2017-06-30T00:27:58.338Z,1001.53
2017-06-30T00:29:00.211Z,1001.53
2017-06-30T00:30:02.108Z,1001.55
2017-06-30T00:31:16.255Z,1001.54
2017-06-30T00:32:18.147Z,1001.47
2017-06-30T00:33:20.025Z,1001.46
2017-06-30T00:34:21.920Z,1001.44
2017-06-30T00:35:23.734Z,1001.41
2017-06-30T00:36:25.549Z,1001.42
2017-06-30T00:37:27.459Z,1001.39
2017-06-30T00:38:29.330Z,1001.44
2017-06-30T00:39:31.228Z,1001.42
2017-06-30T00:40:45.399Z,1001.39
2017-06-30T00:41:47.293Z,1001.39
2017-06-30T00:42:49.167Z,1001.42
2017-06-30T00:43:51.045Z,1001.43
2017-06-30T00:44:52.876Z,1001.38
2017-06-30T00:45:54.715Z,1001.39
2017-06-30T00:46:56.610Z,1001.41
2017-06-30T00:47:58.503Z,1001.43
2017-06-30T00:49:00.366Z,1001.36
2017-06-30T00:50:14.516Z,1001.35
2017-06-30T00:51:16.383Z,1001.41
2017-06-30T00:52:18.285Z,1001.32
2017-06-30T00:53:20.182Z,1001.31
2017-06-30T00:54:22.016Z,1001.27
2017-06-30T00:55:23.822Z,1001.29
2017-06-30T00:56:25.693Z,1001.26
2017-06-30T00:57:27.592Z,1001.27
2017-06-30T00:58:29.460Z,1001.26
2017-06-30T00:59:43.604Z,1001.25
2017-06-30T01:00:45.478Z,1001.27
2017-06-30T01:01:47.386Z,1001.30
2017-06-30T01:02:49.279Z,1001.31
2017-06-30T01:03:51.093Z,1001.28
2017-06-30T01:04:52.931Z,1001.31
2017-06-30T01:05:54.822Z,1001.30
2017-06-30T01:06:56.690Z,1001.33
2017-06-30T01:07:58.563Z,1001.32
2017-06-30T01:09:12.740Z,1001.29
2017-06-30T01:10:14.629Z,1001.31
2017-06-30T01:11:16.528Z,1001.35
2017-06-30T01:12:18.421Z,1001.30
2017-06-30T01:13:20.234Z,1001.30
2017-06-30T01:14:22.072Z,1001.34
2017-06-30T01:15:23.937Z,1001.31
2017-06-30T01:16:25.807Z,1001.30
2017-06-30T01:17:27.708Z,1001.32
2017-06-30T01:18:41.880Z,1001.31
2017-06-30T01:19:43.788Z,1001.35
2017-06-30T01:20:45.687Z,1001.33
2017-06-30T01:21:47.587Z,1001.35
2017-06-30T01:22:49.417Z,1001.41
2017-06-30T01:23:51.233Z,1001.39
2017-06-30T01:24:53.127Z,1001.41
2017-06-30T01:25:55.021Z,1001.41
2017-06-30T01:26:56.891Z,1001.41
2017-06-30T01:28:11.083Z,1001.35
2017-06-30T01:29:12.948Z,1001.42
2017-06-30T01:30:14.845Z,1001.36
2017-06-30T01:31:16.719Z,1001.39
2017-06-30T01:32:18.557Z,1001.37
2017-06-30T01:33:20.398Z,1001.31
2017-06-30T01:34:22.288Z,1001.33
2017-06-30T01:35:24.150Z,1001.38
2017-06-30T01:36:25.991Z,1001.32
2017-06-30T01:37:40.167Z,1001.34
2017-06-30T01:38:42.055Z,1001.37
2017-06-30T01:39:43.943Z,1001.35
2017-06-30T01:40:45.814Z,1001.35
2017-06-30T01:41:47.647Z,1001.36
2017-06-30T01:42:49.475Z,1001.37
2017-06-30T01:43:51.345Z,1001.40
2017-06-30T01:44:53.238Z,1001.39
2017-06-30T01:45:55.131Z,1001.37
2017-06-30T01:47:09.323Z,1001.38
2017-06-30T01:48:11.217Z,1001.39
2017-06-30T01:49:13.086Z,1001.43
2017-06-30T01:50:14.979Z,1001.43
2017-06-30T01:51:16.808Z,1001.47
2017-06-30T01:52:18.613Z,1001.46
2017-06-30T01:53:20.481Z,1001.48
2017-06-30T01:54:22.372Z,1001.54
2017-06-30T01:55:24.262Z,1001.51
2017-06-30T01:56:38.455Z,1001.56
2017-06-30T01:57:40.351Z,1001.52
2017-06-30T01:58:42.243Z,1001.48
2017-06-30T01:59:44.112Z,1001.51
2017-06-30T02:00:45.944Z,1001.54
2017-06-30T02:01:47.752Z,1001.51
2017-06-30T02:02:49.645Z,1001.55
2017-06-30T02:03:51.537Z,1001.52
2017-06-30T02:04:53.430Z,1001.51
2017-06-30T02:06:07.575Z,1001.56
2017-06-30T02:07:09.469Z,1001.55
2017-06-30T02:08:11.364Z,1001.52
2017-06-30T02:09:13.257Z,1001.56
2017-06-30T02:10:15.066Z,1001.55
2017-06-30T02:11:16.897Z,1001.61
2017-06-30T02:12:18.766Z,1001.55
2017-06-30T02:13:20.657Z,1001.61
2017-06-30T02:14:22.550Z,1001.54
2017-06-30T02:15:36.690Z,1001.57
2017-06-30T02:16:38.552Z,1001.65
2017-06-30T02:17:40.423Z,1001.67
2017-06-30T02:18:42.316Z,1001.68
2017-06-30T02:19:44.130Z,1001.65
2017-06-30T02:20:45.960Z,1001.68
2017-06-30T02:21:47.832Z,1001.72
2017-06-30T02:22:49.724Z,1001.76
2017-06-30T02:23:51.615Z,1001.77
2017-06-30T02:25:05.786Z,1001.74
2017-06-30T02:26:07.680Z,1001.77
2017-06-30T02:27:09.575Z,1001.82
2017-06-30T02:28:11.475Z,1001.82
2017-06-30T02:29:13.278Z,1001.81
2017-06-30T02:30:15.116Z,1001.80
2017-06-30T02:31:17.003Z,1001.76
2017-06-30T02:32:18.873Z,1001.82
2017-06-30T02:33:20.767Z,1001.76
2017-06-30T02:34:34.912Z,1001.71
2017-06-30T02:35:36.804Z,1001.78
2017-06-30T02:36:38.710Z,1001.77
2017-06-30T02:37:40.600Z,1001.80
2017-06-30T02:38:42.413Z,1001.80
2017-06-30T02:39:44.256Z,1001.83
2017-06-30T02:40:46.128Z,1001.78
2017-06-30T02:41:48.018Z,1001.81
2017-06-30T02:42:49.893Z,1001.81
2017-06-30T02:44:04.067Z,1001.80
2017-06-30T02:45:05.953Z,1001.80
2017-06-30T02:46:07.831Z,1001.80
2017-06-30T02:47:09.720Z,1001.80
2017-06-30T02:48:11.534Z,1001.84
2017-06-30T02:49:13.380Z,1001.86
2017-06-30T02:50:15.278Z,1001.89
2017-06-30T02:51:17.150Z,1001.87
2017-06-30T02:52:19.048Z,1001.85
2017-06-30T02:53:33.217Z,1001.87
2017-06-30T02:54:35.113Z,1001.88
2017-06-30T02:55:37.009Z,1001.86
2017-06-30T02:56:38.902Z,1001.87
2017-06-30T02:57:40.738Z,1001.88
2017-06-30T02:58:42.570Z,1001.92
2017-06-30T02:59:44.438Z,1001.91
2017-06-30T03:00:46.272Z,1001.86
2017-06-30T03:01:48.144Z,1001.86
2017-06-30T03:03:02.287Z,1001.89
2017-06-30T03:04:04.184Z,1001.99
2017-06-30T03:05:06.075Z,1002.02
2017-06-30T03:06:07.944Z,1001.96
2017-06-30T03:07:09.760Z,1001.95
2017-06-30T03:08:11.568Z,1001.99
2017-06-30T03:09:13.463Z,1002.05
2017-06-30T03:10:15.357Z,1002.11
2017-06-30T03:11:17.220Z,1002.08
2017-06-30T03:12:31.369Z,1002.10
2017-06-30T03:13:33.265Z,1002.18
2017-06-30T03:14:35.164Z,1002.16
2017-06-30T03:15:37.056Z,1002.21
2017-06-30T03:16:38.892Z,1002.24
2017-06-30T03:17:40.700Z,1002.21
2017-06-30T03:18:42.568Z,1002.22
2017-06-30T03:19:44.434Z,1002.30
2017-06-30T03:20:46.305Z,1002.28
2017-06-30T03:22:00.449Z,1002.28
2017-06-30T03:23:02.317Z,1002.32
2017-06-30T03:24:04.191Z,1002.29
2017-06-30T03:25:06.092Z,1002.39
2017-06-30T03:26:07.926Z,1002.35
2017-06-30T03:27:09.739Z,1002.37
2017-06-30T03:28:11.636Z,1002.36
2017-06-30T03:29:13.509Z,1002.40
2017-06-30T03:30:15.381Z,1002.37
2017-06-30T03:31:29.525Z,1002.36
2017-06-30T03:32:31.391Z,1002.38
2017-06-30T03:33:33.265Z,1002.39
2017-06-30T03:34:35.161Z,1002.35
2017-06-30T03:35:36.976Z,1002.39
2017-06-30T03:36:38.814Z,1002.38
2017-06-30T03:37:40.709Z,1002.34
2017-06-30T03:38:42.606Z,1002.33
2017-06-30T03:39:44.507Z,1002.42
2017-06-30T03:40:58.675Z,1002.31
2017-06-30T03:42:00.568Z,1002.38
2017-06-30T03:43:02.446Z,1002.37
2017-06-30T03:44:04.338Z,1002.44
2017-06-30T03:45:06.156Z,1002.50
2017-06-30T03:46:07.985Z,1002.47
2017-06-30T03:47:09.858Z,1002.48
2017-06-30T03:48:11.750Z,1002.51
2017-06-30T03:49:13.626Z,1002.50
2017-06-30T03:50:27.795Z,1002.52
2017-06-30T03:51:29.663Z,1002.52
2017-06-30T03:52:31.540Z,1002.53
2017-06-30T03:53:33.432Z,1002.56
2017-06-30T03:54:35.247Z,1002.58
2017-06-30T03:55:37.085Z,1002.56
2017-06-30T03:56:38.956Z,1002.60
2017-06-30T03:57:40.857Z,1002.57
2017-06-30T03:58:42.727Z,1002.60
2017-06-30T03:59:56.878Z,1002.64
2017-06-30T04:00:58.770Z,1002.64
2017-06-30T04:02:00.650Z,1002.60
2017-06-30T04:03:02.546Z,1002.67
2017-06-30T04:04:04.361Z,1002.69
2017-06-30T04:05:06.200Z,1002.64
2017-06-30T04:06:08.096Z,1002.67
2017-06-30T04:07:09.993Z,1002.69
2017-06-30T04:08:11.892Z,1002.71
2017-06-30T04:09:26.042Z,1002.76
2017-06-30T04:10:27.915Z,1002.78
2017-06-30T04:11:29.813Z,1002.77
2017-06-30T04:12:31.688Z,1002.79
2017-06-30T04:13:33.529Z,1002.81
2017-06-30T04:14:35.369Z,1002.76
2017-06-30T04:15:37.270Z,1002.79
2017-06-30T04:16:39.168Z,1002.82
2017-06-30T04:17:41.066Z,1002.89
2017-06-30T04:18:55.216Z,1002.87
2017-06-30T04:19:57.110Z,1002.89
2017-06-30T04:20:58.991Z,1002.89
2017-06-30T04:22:00.890Z,1002.87
2017-06-30T04:23:02.732Z,1002.89
2017-06-30T04:24:04.540Z,1002.93
2017-06-30T04:25:06.412Z,1002.97
2017-06-30T04:26:08.281Z,1002.92
2017-06-30T04:27:10.157Z,1002.98
2017-06-30T04:28:24.417Z,1002.92
2017-06-30T04:29:26.314Z,1002.97
2017-06-30T04:30:28.212Z,1002.99
2017-06-30T04:31:30.089Z,1002.94
2017-06-30T04:32:31.927Z,1002.99
2017-06-30T04:33:33.738Z,1003.08
2017-06-30T04:34:35.637Z,1003.07
2017-06-30T04:35:37.542Z,1003.06
2017-06-30T04:36:39.442Z,1003.14
2017-06-30T04:37:53.588Z,1003.17
2017-06-30T04:38:55.463Z,1003.15
2017-06-30T04:39:57.363Z,1003.17
2017-06-30T04:40:59.270Z,1003.21
2017-06-30T04:42:01.110Z,1003.18
2017-06-30T04:43:02.948Z,1003.30
2017-06-30T04:44:04.827Z,1003.31
2017-06-30T04:45:06.724Z,1003.32
2017-06-30T04:46:08.597Z,1003.40
2017-06-30T04:47:22.769Z,1003.29
2017-06-30T04:48:24.668Z,1003.29
2017-06-30T04:49:26.568Z,1003.32
2017-06-30T04:50:28.444Z,1003.30
2017-06-30T04:51:30.256Z,1003.37
2017-06-30T04:52:32.098Z,1003.42
2017-06-30T04:53:33.968Z,1003.45
2017-06-30T04:54:35.843Z,1003.49
2017-06-30T04:55:37.714Z,1003.43
2017-06-30T04:56:51.869Z,1003.47
2017-06-30T04:57:53.764Z,1003.43
2017-06-30T04:58:55.664Z,1003.57
2017-06-30T04:59:57.539Z,1003.42
2017-06-30T05:00:59.382Z,1003.33
2017-06-30T05:02:01.196Z,1003.39
2017-06-30T05:03:03.101Z,1003.40
2017-06-30T05:04:04.995Z,1003.39
2017-06-30T05:05:06.870Z,1003.40
2017-06-30T05:06:21.050Z,1003.47
2017-06-30T05:07:22.944Z,1003.52
2017-06-30T05:08:24.818Z,1003.61
2017-06-30T05:09:26.695Z,1003.51
2017-06-30T05:10:28.514Z,1003.54
2017-06-30T05:11:30.354Z,1003.54
2017-06-30T05:12:32.224Z,1003.58
2017-06-30T05:13:34.102Z,1003.67
2017-06-30T05:14:35.981Z,1003.71
2017-06-30T05:15:50.150Z,1003.65
2017-06-30T05:16:52.024Z,1003.66
2017-06-30T05:17:53.923Z,1003.63
2017-06-30T05:18:55.798Z,1003.61
2017-06-30T05:19:57.637Z,1003.63
2017-06-30T05:20:59.458Z,1003.63
2017-06-30T05:22:01.356Z,1003.58
2017-06-30T05:23:03.253Z,1003.50
2017-06-30T05:24:05.156Z,1003.57
2017-06-30T05:25:19.336Z,1003.73
2017-06-30T05:26:21.206Z,1003.78
2017-06-30T05:27:23.105Z,1003.84
2017-06-30T05:28:24.976Z,1003.79
2017-06-30T05:29:26.790Z,1003.75
2017-06-30T05:30:28.602Z,1003.65
2017-06-30T05:31:30.479Z,1003.58
2017-06-30T05:32:32.372Z,1003.63
2017-06-30T05:33:34.249Z,1003.70
2017-06-30T05:34:48.427Z,1003.78
2017-06-30T05:35:50.325Z,1003.76
2017-06-30T05:36:52.227Z,1003.77
2017-06-30T05:37:54.125Z,1003.79
2017-06-30T05:38:55.968Z,1003.80
2017-06-30T05:39:57.808Z,1003.77
2017-06-30T05:40:59.711Z,1003.72
2017-06-30T05:42:01.611Z,1003.70
2017-06-30T05:43:03.514Z,1003.68
2017-06-30T05:44:17.678Z,1003.76
2017-06-30T05:45:19.554Z,1003.65
2017-06-30T05:46:21.455Z,1003.70
2017-06-30T05:47:23.355Z,1003.72
2017-06-30T05:48:25.172Z,1003.71
2017-06-30T05:49:26.984Z,1003.89
2017-06-30T05:50:28.859Z,1003.94
2017-06-30T05:51:30.757Z,1003.95
2017-06-30T05:52:32.634Z,1004.02
2017-06-30T05:53:46.805Z,1003.94
2017-06-30T05:54:48.703Z,1003.95
2017-06-30T05:55:50.582Z,1003.99
2017-06-30T05:56:52.451Z,1004.06
2017-06-30T05:57:54.265Z,1003.98
2017-06-30T05:58:56.110Z,1004.03
2017-06-30T05:59:58.008Z,1003.97
2017-06-30T06:00:59.901Z,1004.05
2017-06-30T06:02:01.782Z,1004.16
2017-06-30T06:03:15.961Z,1004.16
2017-06-30T06:04:17.836Z,1004.09
2017-06-30T06:05:19.734Z,1004.15
2017-06-30T06:06:21.634Z,1004.12
2017-06-30T06:07:23.448Z,1004.04
2017-06-30T06:08:25.283Z,1004.07
2017-06-30T06:09:27.157Z,1004.17
2017-06-30T06:10:29.034Z,1004.15
2017-06-30T06:11:30.937Z,1004.18
2017-06-30T06:12:45.117Z,1004.25
2017-06-30T06:13:47.015Z,1004.20
2017-06-30T06:14:48.888Z,1004.29
2017-06-30T06:15:50.937Z,1004.39
2017-06-30T06:16:52.726Z,1004.39
2017-06-30T06:17:54.562Z,1004.41
2017-06-30T06:18:56.442Z,1004.33
2017-06-30T06:19:58.342Z,1004.38
2017-06-30T06:21:00.244Z,1004.30
2017-06-30T06:22:14.427Z,1004.35
2017-06-30T06:23:16.326Z,1004.37
2017-06-30T06:24:18.224Z,1004.32
2017-06-30T06:25:20.106Z,1004.36
2017-06-30T06:26:21.949Z,1004.44
2017-06-30T06:27:23.788Z,1004.41
2017-06-30T06:28:25.668Z,1004.36
2017-06-30T06:29:27.569Z,1004.50
2017-06-30T06:30:29.445Z,1004.45
2017-06-30T06:31:43.599Z,1004.43
2017-06-30T06:32:45.495Z,1004.52
2017-06-30T06:33:47.372Z,1004.49
2017-06-30T06:34:49.248Z,1004.47
2017-06-30T06:35:51.086Z,1004.55
2017-06-30T06:36:52.909Z,1004.54
2017-06-30T06:37:54.787Z,1004.39
2017-06-30T06:38:56.684Z,1004.39
2017-06-30T06:39:58.545Z,1004.38
2017-06-30T06:41:12.699Z,1004.40
2017-06-30T06:42:14.650Z,1004.42
2017-06-30T06:43:16.572Z,1004.37
2017-06-30T06:44:18.448Z,1004.42
2017-06-30T06:45:20.293Z,1004.40
2017-06-30T06:46:22.132Z,1004.42
2017-06-30T06:47:24.034Z,1004.37
2017-06-30T06:48:25.906Z,1004.42
2017-06-30T06:49:27.812Z,1004.45
2017-06-30T06:50:41.991Z,1004.48
2017-06-30T06:51:43.891Z,1004.48
2017-06-30T06:52:45.768Z,1004.49
2017-06-30T06:53:47.645Z,1004.45
2017-06-30T06:54:49.468Z,1004.54
2017-06-30T06:55:51.303Z,1004.51
2017-06-30T06:56:53.184Z,1004.45
2017-06-30T06:57:55.081Z,1004.58
2017-06-30T06:58:56.963Z,1004.56
2017-06-30T07:00:11.142Z,1004.63
2017-06-30T07:01:13.036Z,1004.61
2017-06-30T07:02:14.917Z,1004.44
2017-06-30T07:03:16.797Z,1004.60
2017-06-30T07:04:18.638Z,1004.60
2017-06-30T07:05:20.455Z,1004.66
2017-06-30T07:06:22.349Z,1004.75
2017-06-30T07:07:24.225Z,1004.68
2017-06-30T07:08:26.099Z,1004.72
2017-06-30T07:09:40.255Z,1004.74
2017-06-30T07:10:42.161Z,1004.69
2017-06-30T07:11:44.058Z,1004.78
2017-06-30T07:12:45.935Z,1004.86
2017-06-30T07:13:47.759Z,1004.91
2017-06-30T07:14:49.598Z,1004.80
2017-06-30T07:15:51.503Z,1004.71
2017-06-30T07:16:53.407Z,1004.79
2017-06-30T07:17:55.308Z,1004.85
2017-06-30T07:19:09.495Z,1004.93
2017-06-30T07:20:11.395Z,1004.97
2017-06-30T07:21:13.295Z,1004.88
2017-06-30T07:22:15.176Z,1005.01
2017-06-30T07:23:17.016Z,1005.04
2017-06-30T07:24:18.865Z,1005.07
2017-06-30T07:25:20.740Z,1005.03
2017-06-30T07:26:22.641Z,1004.97
2017-06-30T07:27:24.545Z,1005.14
2017-06-30T07:28:38.726Z,1005.29
2017-06-30T07:29:40.623Z,1005.35
2017-06-30T07:30:42.525Z,1005.26
2017-06-30T07:31:44.404Z,1005.15
2017-06-30T07:32:46.225Z,1005.10
2017-06-30T07:33:48.065Z,1005.19
2017-06-30T07:34:49.942Z,1005.12
2017-06-30T07:35:51.813Z,1005.28
2017-06-30T07:36:53.691Z,1005.29
2017-06-30T07:38:07.849Z,1005.23
2017-06-30T07:39:09.750Z,1005.19
2017-06-30T07:40:11.651Z,1005.17
2017-06-30T07:41:13.558Z,1005.25
2017-06-30T07:42:15.376Z,1005.38
2017-06-30T07:43:17.235Z,1005.31
2017-06-30T07:44:19.106Z,1005.04
2017-06-30T07:45:20.985Z,1004.98
2017-06-30T07:46:22.892Z,1004.98
2017-06-30T07:47:37.074Z,1004.96
2017-06-30T07:48:38.968Z,1004.88
2017-06-30T07:49:40.852Z,1004.87
2017-06-30T07:50:42.727Z,1004.90
2017-06-30T07:51:44.568Z,1004.98
2017-06-30T07:52:46.383Z,1005.01
2017-06-30T07:53:48.263Z,1004.89
2017-06-30T07:54:50.131Z,1004.84
2017-06-30T07:55:52.012Z,1004.89
2017-06-30T07:57:06.193Z,1004.88
2017-06-30T07:58:08.074Z,1004.96
2017-06-30T07:59:09.973Z,1005.13
2017-06-30T08:00:11.883Z,1005.31
2017-06-30T08:01:13.731Z,1005.40
2017-06-30T08:02:15.550Z,1005.29
2017-06-30T08:03:17.573Z,1005.29
2017-06-30T08:04:19.582Z,1005.25
2017-06-30T08:05:21.585Z,1005.36
2017-06-30T08:06:35.826Z,1005.53
2017-06-30T08:07:37.701Z,1005.31
2017-06-30T08:08:39.575Z,1005.01
2017-06-30T08:09:41.454Z,1004.92
2017-06-30T08:10:43.295Z,1005.07
2017-06-30T08:11:45.111Z,1004.97
2017-06-30T08:12:47.013Z,1004.96
2017-06-30T08:13:48.913Z,1004.88
2017-06-30T08:14:50.815Z,1004.86
2017-06-30T08:16:04.964Z,1004.89
2017-06-30T08:17:06.841Z,1004.94
2017-06-30T08:18:08.736Z,1004.93
2017-06-30T08:19:10.617Z,1004.87
2017-06-30T08:20:12.431Z,1004.97
2017-06-30T08:21:14.265Z,1005.07
2017-06-30T08:22:16.141Z,1005.08
2017-06-30T08:23:18.018Z,1004.94
2017-06-30T08:24:19.919Z,1005.11
2017-06-30T08:25:34.080Z,1005.20
2017-06-30T08:26:35.979Z,1005.13
2017-06-30T08:27:37.882Z,1005.07
2017-06-30T08:28:39.778Z,1004.95
2017-06-30T08:29:41.594Z,1005.06
2017-06-30T08:30:43.408Z,1005.07
2017-06-30T08:31:45.283Z,1005.10
2017-06-30T08:32:47.185Z,1005.11
2017-06-30T08:33:49.086Z,1005.26
2017-06-30T08:35:03.234Z,1005.54
2017-06-30T08:36:05.146Z,1005.68
2017-06-30T08:37:07.038Z,1005.66
2017-06-30T08:38:08.941Z,1005.61
2017-06-30T08:39:10.758Z,1005.53
2017-06-30T08:40:12.597Z,1005.46
2017-06-30T08:41:14.469Z,1005.40
2017-06-30T08:42:16.371Z,1005.33
2017-06-30T08:43:18.269Z,1005.48
2017-06-30T08:44:32.420Z,1005.42
2017-06-30T08:45:34.291Z,1005.46
2017-06-30T08:46:36.197Z,1005.64
2017-06-30T08:47:38.070Z,1005.67
2017-06-30T08:48:39.892Z,1005.72
2017-06-30T08:49:41.729Z,1005.81
2017-06-30T08:50:43.604Z,1005.79
2017-06-30T08:51:45.485Z,1005.75
2017-06-30T08:52:47.389Z,1005.78
2017-06-30T08:54:01.568Z,1005.87
2017-06-30T08:55:03.457Z,1005.81
2017-06-30T08:56:05.359Z,1005.78
2017-06-30T08:57:07.264Z,1005.87
2017-06-30T08:58:09.112Z,1005.85
2017-06-30T08:59:10.952Z,1005.77
2017-06-30T09:00:12.850Z,1005.70
2017-06-30T09:01:14.733Z,1005.69
2017-06-30T09:02:16.631Z,1005.59
2017-06-30T09:03:30.790Z,1005.61
2017-06-30T09:04:32.693Z,1005.53
2017-06-30T09:05:34.600Z,1005.54
2017-06-30T09:06:36.483Z,1005.68
2017-06-30T09:07:38.327Z,1005.59
2017-06-30T09:08:40.139Z,1005.54
2017-06-30T09:09:42.017Z,1005.59
2017-06-30T09:10:44.025Z,1005.83
2017-06-30T09:11:46.046Z,1006.04
2017-06-30T09:13:00.203Z,1006.07
2017-06-30T09:14:02.091Z,1006.06
2017-06-30T09:15:03.994Z,1006.05
2017-06-30T09:16:05.894Z,1006.13
2017-06-30T09:17:07.736Z,1006.02
2017-06-30T09:18:09.576Z,1006.00
2017-06-30T09:19:11.461Z,1005.93
2017-06-30T09:20:13.381Z,1005.97
2017-06-30T09:21:15.274Z,1005.83
2017-06-30T09:22:29.454Z,1005.82
2017-06-30T09:23:31.329Z,1005.84
2017-06-30T09:24:33.209Z,1005.82
2017-06-30T09:25:35.089Z,1005.82
2017-06-30T09:26:36.929Z,1005.66
2017-06-30T09:27:38.812Z,1005.64
2017-06-30T09:28:40.706Z,1005.71
2017-06-30T09:29:42.604Z,1005.82
2017-06-30T09:30:44.482Z,1005.84
2017-06-30T09:31:58.832Z,1005.94
2017-06-30T09:33:00.712Z,1005.92
2017-06-30T09:34:02.589Z,1006.07
2017-06-30T09:35:04.490Z,1006.01
2017-06-30T09:36:06.338Z,1006.13
2017-06-30T09:37:08.180Z,1006.24
2017-06-30T09:38:10.083Z,1006.28
2017-06-30T09:39:11.986Z,1006.32
2017-06-30T09:40:13.882Z,1006.30
2017-06-30T09:41:28.040Z,1006.38
2017-06-30T09:42:29.943Z,1006.39
2017-06-30T09:43:31.822Z,1006.43
2017-06-30T09:44:33.722Z,1006.43
2017-06-30T09:45:35.545Z,1006.40
2017-06-30T09:46:37.390Z,1006.37
2017-06-30T09:47:39.291Z,1006.34
2017-06-30T09:48:41.176Z,1006.34
2017-06-30T09:49:43.079Z,1006.30
2017-06-30T09:50:57.238Z,1006.36
2017-06-30T09:51:59.140Z,1006.24
2017-06-30T09:53:01.042Z,1006.15
2017-06-30T09:54:02.919Z,1006.08
2017-06-30T09:55:04.739Z,1005.88
2017-06-30T09:56:06.563Z,1005.99
2017-06-30T09:57:08.468Z,1006.10
2017-06-30T09:58:10.372Z,1006.17
2017-06-30T09:59:12.284Z,1006.18
2017-06-30T10:00:26.471Z,1006.06
2017-06-30T10:01:28.334Z,1005.90
2017-06-30T10:02:30.214Z,1005.89
2017-06-30T10:03:32.116Z,1005.91
2017-06-30T10:04:33.937Z,1005.81
2017-06-30T10:05:35.779Z,1005.84
2017-06-30T10:06:37.685Z,1006.01
2017-06-30T10:07:39.590Z,1006.13
2017-06-30T10:08:41.494Z,1006.09
2017-06-30T10:09:55.676Z,1005.99
2017-06-30T10:10:57.577Z,1005.99
2017-06-30T10:11:59.453Z,1005.92
2017-06-30T10:13:01.329Z,1005.86
2017-06-30T10:14:03.155Z,1005.85
2017-06-30T10:15:04.991Z,1005.78
2017-06-30T10:16:06.871Z,1005.78
2017-06-30T10:17:08.748Z,1005.80
2017-06-30T10:18:10.617Z,1005.73
2017-06-30T10:19:24.795Z,1005.74
2017-06-30T10:20:26.667Z,1005.66
2017-06-30T10:21:28.545Z,1005.63
2017-06-30T10:22:30.450Z,1005.59
2017-06-30T10:23:32.261Z,1005.67
2017-06-30T10:24:34.082Z,1005.74
2017-06-30T10:25:35.982Z,1005.95
2017-06-30T10:26:37.881Z,1006.16
2017-06-30T10:27:39.757Z,1006.26
2017-06-30T10:28:53.912Z,1006.11
2017-06-30T10:29:55.787Z,1006.06
2017-06-30T10:30:57.692Z,1006.07
2017-06-30T10:31:59.588Z,1006.04
2017-06-30T10:33:01.410Z,1006.01
2017-06-30T10:34:03.253Z,1006.01
2017-06-30T10:35:05.129Z,1005.94
2017-06-30T10:36:07.032Z,1005.89
2017-06-30T10:37:08.929Z,1005.87
2017-06-30T10:38:23.085Z,1005.81
2017-06-30T10:39:24.986Z,1005.74
2017-06-30T10:40:26.890Z,1006.08
2017-06-30T10:41:28.792Z,1006.26
2017-06-30T10:42:30.633Z,1006.35
2017-06-30T10:43:32.449Z,1006.46
2017-06-30T10:44:34.316Z,1006.49
2017-06-30T10:45:36.150Z,1006.50
2017-06-30T10:46:37.985Z,1006.44
2017-06-30T10:47:52.136Z,1006.19
2017-06-30T10:48:54.013Z,1005.96
2017-06-30T10:49:55.922Z,1006.02
2017-06-30T10:50:57.818Z,1006.13
2017-06-30T10:51:59.640Z,1006.33
2017-06-30T10:53:01.452Z,1006.38
2017-06-30T10:54:03.331Z,1006.53
2017-06-30T10:55:05.236Z,1006.52
2017-06-30T10:56:07.113Z,1006.60
2017-06-30T10:57:21.264Z,1006.78
2017-06-30T10:58:23.170Z,1006.82
2017-06-30T10:59:25.077Z,1006.82
2017-06-30T11:00:26.958Z,1006.84
2017-06-30T11:01:28.801Z,1006.81
2017-06-30T11:02:30.624Z,1006.69
2017-06-30T11:03:32.522Z,1006.65
2017-06-30T11:04:34.401Z,1006.64
2017-06-30T11:05:36.302Z,1006.65
2017-06-30T11:06:50.455Z,1006.65
2017-06-30T11:07:52.336Z,1006.65
2017-06-30T11:08:54.244Z,1006.61
2017-06-30T11:09:56.148Z,1006.62
2017-06-30T11:10:57.994Z,1006.60
2017-06-30T11:11:59.838Z,1006.66
2017-06-30T11:13:01.733Z,1006.62
2017-06-30T11:14:03.643Z,1006.50
2017-06-30T11:15:05.496Z,1006.52
2017-06-30T11:16:19.653Z,1006.48
2017-06-30T11:17:21.527Z,1006.43
2017-06-30T11:18:23.423Z,1006.51
2017-06-30T11:19:25.302Z,1006.54
2017-06-30T11:20:27.121Z,1006.48
2017-06-30T11:21:28.967Z,1006.55
2017-06-30T11:22:30.843Z,1006.58
2017-06-30T11:23:32.744Z,1006.65
2017-06-30T11:24:34.617Z,1006.65
2017-06-30T11:25:48.776Z,1006.55
2017-06-30T11:26:50.650Z,1006.43
2017-06-30T11:27:52.557Z,1006.52
2017-06-30T11:28:54.464Z,1006.40
2017-06-30T11:29:56.298Z,1006.45
2017-06-30T11:30:58.118Z,1006.46
2017-06-30T11:32:00.017Z,1006.31
2017-06-30T11:33:01.906Z,1006.39
2017-06-30T11:34:03.795Z,1006.43
2017-06-30T11:35:17.976Z,1006.27
2017-06-30T11:36:19.875Z,1006.11
2017-06-30T11:37:21.773Z,1006.06
2017-06-30T11:38:23.651Z,1006.06
2017-06-30T11:39:25.472Z,1006.02
2017-06-30T11:40:27.289Z,1006.02
2017-06-30T11:41:29.193Z,1006.12
2017-06-30T11:42:31.091Z,1006.12
2017-06-30T11:43:32.995Z,1006.25
2017-06-30T11:44:47.152Z,1006.41
2017-06-30T11:45:49.052Z,1006.51
2017-06-30T11:46:50.930Z,1006.68
2017-06-30T11:47:52.806Z,1006.82
2017-06-30T11:48:54.654Z,1006.80
2017-06-30T11:49:56.495Z,1006.80
2017-06-30T11:50:58.368Z,1006.83
2017-06-30T11:52:00.251Z,1006.66
2017-06-30T11:53:02.155Z,1006.85
2017-06-30T11:54:16.312Z,1006.76
2017-06-30T11:55:18.192Z,1006.40
2017-06-30T11:56:20.099Z,1006.31
2017-06-30T11:57:22.003Z,1006.37
2017-06-30T11:58:23.827Z,1006.42
2017-06-30T11:59:25.672Z,1006.56
2017-06-30T12:00:27.576Z,1006.69
2017-06-30T12:01:29.478Z,1006.74
2017-06-30T12:02:31.368Z,1006.81
2017-06-30T12:03:45.544Z,1006.82
2017-06-30T12:04:47.418Z,1006.75
2017-06-30T12:05:49.303Z,1006.73
2017-06-30T12:06:51.174Z,1006.77
2017-06-30T12:07:53.001Z,1006.79
2017-06-30T12:08:54.841Z,1006.81
2017-06-30T12:09:56.742Z,1006.82
2017-06-30T12:10:58.624Z,1006.87
2017-06-30T12:12:00.502Z,1006.79
2017-06-30T12:13:14.681Z,1006.68
2017-06-30T12:14:16.554Z,1006.52
2017-06-30T12:15:18.459Z,1006.45
2017-06-30T12:16:20.329Z,1006.41
2017-06-30T12:17:22.147Z,1006.47
2017-06-30T12:18:23.984Z,1006.59
2017-06-30T12:19:25.865Z,1006.81
2017-06-30T12:20:27.742Z,1006.75
2017-06-30T12:21:29.645Z,1006.75
2017-06-30T12:22:43.826Z,1006.81
2017-06-30T12:23:45.732Z,1006.77
2017-06-30T12:24:47.638Z,1006.78
2017-06-30T12:25:49.544Z,1006.78
2017-06-30T12:26:51.386Z,1006.60
2017-06-30T12:27:53.200Z,1006.66
2017-06-30T12:28:55.080Z,1006.56
2017-06-30T12:29:56.992Z,1006.50
2017-06-30T12:30:58.888Z,1006.49
2017-06-30T12:32:13.044Z,1006.56
2017-06-30T12:33:14.944Z,1006.60
2017-06-30T12:34:16.831Z,1006.56
2017-06-30T12:35:18.736Z,1006.66
2017-06-30T12:36:20.582Z,1006.74
2017-06-30T12:37:22.421Z,1006.78
2017-06-30T12:38:24.324Z,1006.88
2017-06-30T12:39:26.201Z,1006.99
2017-06-30T12:40:28.082Z,1006.89
2017-06-30T12:41:42.239Z,1006.86
2017-06-30T12:42:44.141Z,1006.83
2017-06-30T12:43:46.045Z,1006.68
2017-06-30T12:44:47.949Z,1006.71